Time;durP1;ratioP1;P1;durP2;ratioP2;P2;SDS_P1;SDS_P2;PMS_P1;PMS_P2;Temp;Humidity;BMP_temperature;BMP_pressure;BME280_temperature;BME280_humidity;BME280_pressure;Samples;Min_cycle;Max_cycle;Signal;HPM_P1;HPM_P2
2022/08/13 00:01:15;;;;;;;9.52;5.35;;;;;;;18.73;60.08;101613.31;6241564;22;20007;-80
2022/08/13 00:03:42;;;;;;;9.18;5.20;;;;;;;18.69;59.13;101608.28;6240907;22;20551;-80
2022/08/13 00:06:08;;;;;;;7.30;5.78;;;;;;;18.66;59.80;101609.25;6241071;22;20004;-80
2022/08/13 00:08:35;;;;;;;8.38;5.43;;;;;;;18.63;60.65;101604.13;6241637;22;20077;-80
2022/08/13 00:11:02;;;;;;;7.15;5.45;;;;;;;18.59;59.68;101607.81;6241174;22;20002;-80
2022/08/13 00:13:27;;;;;;;7.03;5.03;;;;;;;18.58;60.30;101606.09;6240523;23;20384;-80
2022/08/13 00:15:53;;;;;;;7.07;5.40;;;;;;;18.57;60.07;101608.78;6241797;22;20417;-80
2022/08/13 00:18:20;;;;;;;7.35;5.40;;;;;;;18.51;60.13;101610.75;6241349;23;20008;-80
2022/08/13 00:20:48;;;;;;;8.02;5.07;;;;;;;18.51;60.78;101612.53;6239028;23;20334;-80
2022/08/13 00:23:14;;;;;;;8.27;5.38;;;;;;;18.45;61.09;101611.03;6240511;22;20314;-80
2022/08/13 00:25:41;;;;;;;8.27;5.72;;;;;;;18.39;60.49;101605.19;6240889;22;20012;-80
2022/08/13 00:28:06;;;;;;;10.77;5.57;;;;;;;18.40;61.41;101617.41;6241586;22;20087;-80
2022/08/13 00:30:35;;;;;;;13.15;6.07;;;;;;;18.37;60.77;101612.28;6241068;23;20046;-82
2022/08/13 00:33:04;;;;;;;9.30;5.40;;;;;;;18.36;61.23;101607.94;6265883;22;20007;-82
2022/08/13 00:35:31;;;;;;;12.77;5.75;;;;;;;18.29;60.56;101611.75;6241421;22;19999;-82
2022/08/13 00:37:57;;;;;;;13.25;5.68;;;;;;;18.27;61.88;101611.84;6240705;22;20004;-82
2022/08/13 00:40:26;;;;;;;8.85;5.20;;;;;;;18.24;60.03;101617.22;6239783;22;20066;-82
2022/08/13 00:42:52;;;;;;;7.57;5.85;;;;;;;18.20;61.38;101615.66;6241818;22;20038;-81
2022/08/13 00:45:18;;;;;;;9.55;5.70;;;;;;;18.18;61.97;101609.59;6241730;22;20446;-82
2022/08/13 00:50:28;;;;;;;10.15;5.95;;;;;;;18.16;61.31;101608.81;6241202;23;20063;-81
2022/08/13 00:52:53;;;;;;;10.32;5.88;;;;;;;18.12;59.80;101617.75;6240129;23;20342;-82
2022/08/13 00:55:21;;;;;;;8.98;5.95;;;;;;;18.13;62.21;101616.81;6239078;23;20004;-82
2022/08/13 00:57:48;;;;;;;9.93;6.25;;;;;;;18.09;61.32;101607.34;6239356;23;20030;-82
2022/08/13 01:00:20;;;;;;;7.53;6.13;;;;;;;18.04;61.17;101614.59;6241135;22;20038;-82
2022/08/13 01:02:50;;;;;;;8.15;6.50;;;;;;;18.00;61.05;101613.03;6242252;22;20000;-82
2022/08/13 01:05:17;;;;;;;9.25;6.40;;;;;;;17.97;62.00;101615.75;6240737;22;20000;-82
2022/08/13 01:07:43;;;;;;;7.85;6.07;;;;;;;17.94;61.73;101616.75;6240911;22;20027;-82
2022/08/13 01:10:15;;;;;;;8.85;6.25;;;;;;;17.92;60.73;101621.22;6241261;22;20008;-82
2022/08/13 01:12:41;;;;;;;11.05;6.35;;;;;;;17.90;61.78;101620.41;6264215;22;20004;-82
2022/08/13 01:15:12;;;;;;;9.60;6.30;;;;;;;17.88;61.69;101619.59;6240028;23;20000;-82
2022/08/13 01:17:39;;;;;;;10.95;6.70;;;;;;;17.84;61.21;101618.03;6241701;22;20085;-82
2022/08/13 01:20:05;;;;;;;9.15;6.30;;;;;;;17.80;62.23;101616.47;6239851;23;20000;-82
2022/08/13 01:22:33;;;;;;;11.90;6.80;;;;;;;17.78;62.99;101618.31;6239127;22;20020;-82
2022/08/13 01:24:58;;;;;;;10.23;6.43;;;;;;;17.74;62.17;101617.56;6241033;22;20004;-82
2022/08/13 01:27:25;;;;;;;10.52;6.80;;;;;;;17.69;61.92;101619.53;6241037;22;20004;-82
2022/08/13 01:29:51;;;;;;;10.63;6.70;;;;;;;17.67;62.18;101620.53;6265402;22;20396;-82
2022/08/13 01:32:17;;;;;;;10.38;6.78;;;;;;;17.65;61.41;101627.59;6264943;22;20421;-82
2022/08/13 01:34:45;;;;;;;8.80;7.15;;;;;;;17.62;62.99;101625.06;6241093;22;20341;-81
2022/08/13 01:37:11;;;;;;;11.63;6.78;;;;;;;17.62;62.38;101622.44;6241602;22;20000;-81
2022/08/13 01:39:38;;;;;;;8.80;6.97;;;;;;;17.56;62.74;101620.03;6241372;22;20007;-82
2022/08/13 01:42:06;;;;;;;9.73;6.82;;;;;;;17.55;63.16;101626.19;6239610;22;20004;-82
2022/08/13 01:44:31;;;;;;;9.30;6.75;;;;;;;17.57;62.86;101622.63;6242155;22;20030;-82
2022/08/13 01:52:33;;;;;;;11.65;7.43;;;;;;;17.44;62.38;101623.16;6239341;23;20019;-81
2022/08/13 01:55:01;;;;;;;10.90;7.90;;;;;;;17.37;62.90;101618.16;6242623;23;20008;-82
2022/08/13 01:57:26;;;;;;;10.55;7.90;;;;;;;17.36;62.84;101616.47;6243251;22;20008;-82
2022/08/13 01:59:53;;;;;;;12.40;7.75;;;;;;;17.38;63.71;101616.41;6243060;22;20010;-82
2022/08/13 02:02:18;;;;;;;12.15;7.07;;;;;;;17.33;63.28;101616.56;6241536;22;20133;-82
2022/08/13 02:04:44;;;;;;;10.77;7.50;;;;;;;17.28;63.81;101615.03;6241442;23;20032;-82
2022/08/13 02:07:13;;;;;;;10.38;7.68;;;;;;;17.25;63.20;101610.78;6241348;23;20007;-81
2022/08/13 02:09:43;;;;;;;11.48;7.97;;;;;;;17.20;62.44;101615.34;6242633;22;20098;-81
2022/08/13 02:12:13;;;;;;;9.77;7.68;;;;;;;17.14;63.48;101605.09;6240638;23;20071;-82
2022/08/13 02:14:42;;;;;;;10.23;7.80;;;;;;;17.13;63.54;101618.25;6242808;22;20010;-82
2022/08/13 02:17:25;;;;;;;11.65;8.30;;;;;;;17.11;63.36;101612.22;6242694;22;20023;-82
2022/08/13 02:19:52;;;;;;;12.52;8.30;;;;;;;17.08;64.08;101615.81;6265688;22;20016;-82
2022/08/13 02:22:18;;;;;;;13.40;8.20;;;;;;;17.11;65.00;101610.47;6241656;22;20019;-81
2022/08/13 02:24:51;;;;;;;11.95;8.70;;;;;;;17.04;63.72;101610.75;6242811;22;20008;-82
2022/08/13 02:27:20;;;;;;;12.60;8.87;;;;;;;17.00;64.05;101615.25;6243017;22;20083;-82
2022/08/13 02:29:46;;;;;;;12.15;8.15;;;;;;;16.98;63.66;101611.84;6243366;22;20461;-82
2022/08/13 02:32:11;;;;;;;13.55;8.45;;;;;;;16.94;65.27;101613.72;6241790;22;20004;-82
2022/08/13 02:34:39;;;;;;;11.20;8.50;;;;;;;16.96;64.79;101617.13;6243152;23;20004;-82
2022/08/13 02:37:05;;;;;;;14.60;8.32;;;;;;;16.89;65.06;101620.03;6240291;23;20246;-82
2022/08/13 02:39:30;;;;;;;13.15;8.18;;;;;;;16.88;65.55;101613.09;6243307;22;19999;-82
2022/08/13 02:41:56;;;;;;;13.48;8.63;;;;;;;16.85;66.02;101616.69;6241609;22;20378;-81
2022/08/13 02:44:25;;;;;;;11.20;8.65;;;;;;;16.82;66.11;101619.41;6240847;23;20581;-82
2022/08/13 02:46:51;;;;;;;10.45;8.73;;;;;;;16.81;66.00;101616.84;6241626;22;20552;-82
2022/08/13 02:49:17;;;;;;;10.25;8.65;;;;;;;16.80;66.14;101616.00;6243182;22;20028;-82
2022/08/13 02:51:47;;;;;;;11.63;8.60;;;;;;;16.76;66.58;101614.41;6241194;22;20061;-82
2022/08/13 02:54:13;;;;;;;11.18;9.10;;;;;;;16.78;66.54;101619.59;6241772;22;20000;-81
2022/08/13 02:56:39;;;;;;;12.52;9.30;;;;;;;16.75;66.28;101610.09;6241969;22;20003;-82
2022/08/13 02:59:10;;;;;;;14.70;9.45;;;;;;;16.71;66.10;101612.88;6242070;22;20004;-80
2022/08/13 03:01:40;;;;;;;12.52;9.30;;;;;;;16.71;67.31;101615.50;6240798;22;20010;-80
2022/08/13 03:04:07;;;;;;;12.25;9.45;;;;;;;16.67;66.13;101614.75;6242922;22;20058;-80
2022/08/13 03:06:33;;;;;;;14.20;9.55;;;;;;;16.62;66.10;101613.22;6241998;22;20008;-80
2022/08/13 03:09:01;;;;;;;10.48;9.10;;;;;;;16.60;66.37;101608.03;6242839;22;20024;-80
2022/08/13 03:11:26;;;;;;;10.23;8.80;;;;;;;16.57;67.23;101611.59;6265411;22;20000;-80
2022/08/13 03:14:07;;;;;;;10.52;8.70;;;;;;;16.58;66.41;101613.28;6241478;23;20012;-79
2022/08/13 03:16:34;;;;;;;11.35;8.80;;;;;;;16.55;67.13;101612.53;6241630;22;20000;-80
2022/08/13 03:19:00;;;;;;;16.98;9.30;;;;;;;16.54;68.04;101614.31;6242592;22;20038;-80
2022/08/13 03:21:29;;;;;;;10.23;8.73;;;;;;;16.55;68.33;101621.25;6241937;22;20020;-80
2022/08/13 03:23:55;;;;;;;13.60;8.98;;;;;;;16.51;67.30;101614.41;6241804;22;20357;-80
2022/08/13 03:26:21;;;;;;;10.55;9.02;;;;;;;16.49;67.89;101618.84;6242244;22;20659;-80
2022/08/13 03:28:46;;;;;;;13.63;9.68;;;;;;;16.46;66.40;101618.09;6242161;23;20037;-80
2022/08/13 03:31:15;;;;;;;12.80;8.63;;;;;;;16.42;66.30;101614.75;6239447;23;20000;-80
2022/08/13 03:33:40;;;;;;;12.55;9.35;;;;;;;16.39;66.74;101614.00;6242261;22;20004;-80
2022/08/13 03:36:06;;;;;;;11.02;8.98;;;;;;;16.33;67.49;101614.22;6241763;22;20006;-79
2022/08/13 03:38:32;;;;;;;10.40;9.05;;;;;;;16.32;67.70;101612.50;6242549;22;20011;-80
2022/08/13 03:41:00;;;;;;;13.77;9.30;;;;;;;16.34;66.75;101622.00;6241088;23;20007;-80
2022/08/13 03:43:27;;;;;;;12.55;9.07;;;;;;;16.27;67.35;101612.66;6239487;22;20242;-80
2022/08/13 03:45:54;;;;;;;13.40;9.63;;;;;;;16.22;67.58;101616.34;6240290;23;20014;-80
2022/08/13 03:48:21;;;;;;;12.75;9.77;;;;;;;16.22;67.59;101617.22;6242209;22;20000;-80
2022/08/13 03:50:48;;;;;;;12.82;9.30;;;;;;;16.20;67.95;101619.03;6241830;22;20461;-80
2022/08/13 03:53:16;;;;;;;18.40;9.43;;;;;;;16.15;67.73;101619.19;6241243;22;20007;-80
2022/08/13 03:55:42;;;;;;;15.70;9.32;;;;;;;16.12;67.71;101616.66;6239877;23;20434;-80
2022/08/13 03:58:09;;;;;;;13.35;9.60;;;;;;;16.11;68.24;101619.31;6240266;23;20076;-80
2022/08/13 04:00:42;;;;;;;14.90;9.10;;;;;;;16.06;68.39;101616.00;6241279;22;20000;-82
2022/08/13 04:03:19;;;;;;;12.10;9.23;;;;;;;16.04;68.09;101612.59;6239809;23;20000;-81
2022/08/13 04:05:45;;;;;;;12.07;9.05;;;;;;;16.01;68.10;101610.94;6241127;22;20337;-82
2022/08/13 04:08:11;;;;;;;12.45;9.10;;;;;;;16.02;69.04;101612.66;6242212;22;20000;-81
2022/08/13 04:10:37;;;;;;;12.68;9.25;;;;;;;16.00;69.78;101611.84;6239420;23;20004;-81
2022/08/13 04:13:03;;;;;;;12.50;9.45;;;;;;;15.97;68.96;101603.25;6241014;22;20433;-82
2022/08/13 04:15:29;;;;;;;12.82;9.65;;;;;;;15.93;68.20;101602.50;6241381;22;20073;-82
2022/08/13 04:17:55;;;;;;;13.55;9.95;;;;;;;15.92;68.64;101605.16;6241612;22;20007;-82
2022/08/13 04:20:21;;;;;;;12.10;9.33;;;;;;;15.89;69.32;101606.16;6241061;23;20091;-82
2022/08/13 04:22:47;;;;;;;14.15;10.02;;;;;;;15.89;69.50;101607.91;6241672;22;20340;-82
2022/08/13 04:25:12;;;;;;;12.63;9.37;;;;;;;15.87;70.14;101610.56;6239247;23;20403;-82
2022/08/13 04:27:38;;;;;;;14.60;9.82;;;;;;;15.85;70.27;101616.72;6241644;22;20231;-81
2022/08/13 04:30:05;;;;;;;12.35;10.02;;;;;;;15.84;69.36;101620.25;6242246;22;20024;-82
2022/08/13 04:32:43;;;;;;;15.05;10.00;;;;;;;15.84;69.17;101622.88;6241079;22;20000;-82
2022/08/13 04:35:10;;;;;;;14.55;9.73;;;;;;;15.84;70.42;101626.34;6241166;22;20566;-82
2022/08/13 04:37:37;;;;;;;11.68;9.82;;;;;;;15.82;70.27;101628.16;6240058;22;20004;-82
2022/08/13 04:40:04;;;;;;;15.38;10.18;;;;;;;15.86;71.28;101631.53;6241342;22;20007;-81
2022/08/13 04:42:44;;;;;;;12.25;9.55;;;;;;;15.82;70.13;101622.09;6240753;22;20004;-81
2022/08/13 04:45:09;;;;;;;12.32;10.10;;;;;;;15.83;70.30;101621.19;6241378;22;20004;-82
2022/08/13 04:47:34;;;;;;;12.15;10.40;;;;;;;15.81;70.92;101626.44;6241342;23;20018;-82
2022/08/13 04:50:00;;;;;;;13.67;9.60;;;;;;;15.82;70.33;101624.69;6241686;23;20072;-82
2022/08/13 04:52:25;;;;;;;15.70;9.83;;;;;;;15.84;70.62;101625.47;6239042;23;20756;-82
2022/08/13 04:54:50;;;;;;;17.63;10.48;;;;;;;15.78;70.64;101622.16;6240605;22;20274;-82
2022/08/13 04:57:16;;;;;;;14.83;10.50;;;;;;;15.81;71.28;101621.22;6239197;23;20000;-82
2022/08/13 04:59:42;;;;;;;15.37;10.10;;;;;;;15.80;71.23;101635.19;6241673;23;20258;-82
2022/08/13 05:02:08;;;;;;;17.63;9.85;;;;;;;15.79;71.59;101633.47;6240217;22;20246;-82
2022/08/13 05:04:33;;;;;;;13.50;9.38;;;;;;;15.80;71.67;101633.44;6240419;22;20000;-82
2022/08/13 05:06:58;;;;;;;14.13;9.67;;;;;;;15.84;72.83;101631.56;6241129;23;20007;-82
2022/08/13 05:09:24;;;;;;;13.33;9.67;;;;;;;15.84;72.67;101635.94;6238602;23;20728;-82
2022/08/13 05:11:49;;;;;;;12.07;9.00;;;;;;;15.84;72.33;101628.94;6240860;23;20263;-82
2022/08/13 05:14:14;;;;;;;13.48;9.93;;;;;;;15.85;72.30;101637.66;6241102;22;20239;-82
2022/08/13 05:16:42;;;;;;;13.60;9.85;;;;;;;15.85;71.40;101635.03;6240890;23;20078;-82
2022/08/13 05:19:08;;;;;;;14.63;10.02;;;;;;;15.88;73.04;101637.56;6241709;22;20023;-82
2022/08/13 05:21:33;;;;;;;14.68;9.82;;;;;;;15.88;72.28;101634.94;6240456;22;20016;-82
2022/08/13 05:23:59;;;;;;;11.00;9.30;;;;;;;15.92;73.28;101645.25;6241193;22;20011;-82
2022/08/13 05:26:26;;;;;;;13.82;9.43;;;;;;;15.94;74.00;101640.84;6242251;23;20019;-82
2022/08/13 05:28:51;;;;;;;16.30;9.98;;;;;;;15.98;74.30;101641.56;6242163;22;20004;-82
2022/08/13 05:31:17;;;;;;;13.05;9.05;;;;;;;15.96;72.07;101639.03;6243358;22;20007;-82
2022/08/13 05:33:43;;;;;;;13.90;9.30;;;;;;;16.00;74.30;101638.00;6243400;22;20018;-82
2022/08/13 05:36:09;;;;;;;12.85;9.15;;;;;;;16.02;74.36;101641.44;6243279;22;20001;-82
2022/08/13 05:38:35;;;;;;;12.98;9.50;;;;;;;16.03;73.62;101640.53;6241563;23;20069;-82
2022/08/13 05:41:03;;;;;;;12.50;9.30;;;;;;;16.05;74.27;101643.06;6243396;22;20469;-82
2022/08/13 05:43:33;;;;;;;11.68;9.05;;;;;;;16.05;73.90;101630.84;6242093;22;20093;-82
2022/08/13 05:46:02;;;;;;;15.45;9.88;;;;;;;16.07;74.41;101631.66;6243380;22;20036;-82
2022/08/13 05:48:32;;;;;;;12.93;9.48;;;;;;;16.11;74.55;101632.41;6243496;22;20012;-82
2022/08/13 05:50:59;;;;;;;11.75;9.25;;;;;;;16.15;74.75;101636.63;6243385;22;20075;-82
2022/08/13 05:53:26;;;;;;;11.65;9.27;;;;;;;16.15;74.94;101636.63;6243203;22;20500;-82
2022/08/13 05:55:53;;;;;;;14.73;9.18;;;;;;;16.18;76.26;101634.75;6242521;22;20000;-82
2022/08/13 05:58:19;;;;;;;15.07;9.13;;;;;;;16.18;75.01;101634.75;6242827;22;20004;-82
2022/08/13 06:03:28;;;;;;;10.88;8.88;;;;;;;16.32;74.92;101636.03;6241340;23;20018;-82
2022/08/13 06:05:56;;;;;;;14.57;9.43;;;;;;;16.33;76.12;101625.53;6240890;23;20072;-82
2022/08/13 06:08:27;;;;;;;14.80;9.98;;;;;;;16.43;75.74;101637.41;6239793;23;20004;-82
2022/08/13 06:10:52;;;;;;;16.05;9.82;;;;;;;16.46;75.79;101633.81;6239960;22;20444;-82
2022/08/13 06:13:18;;;;;;;13.98;9.20;;;;;;;16.52;75.98;101638.81;6241023;22;20011;-82
2022/08/13 06:15:44;;;;;;;16.95;10.00;;;;;;;16.58;76.36;101642.06;6241261;22;19996;-82
2022/08/13 06:18:12;;;;;;;14.35;9.18;;;;;;;16.60;76.21;101634.19;6240131;23;20008;-82
2022/08/13 06:20:40;;;;;;;11.25;9.15;;;;;;;16.66;76.50;101628.75;6239942;23;20052;-82
2022/08/13 06:23:16;;;;;;;12.63;9.55;;;;;;;16.72;77.07;101625.91;6242497;22;20014;-83
2022/08/13 06:25:41;;;;;;;13.63;10.30;;;;;;;16.79;74.16;101631.75;6242472;22;20000;-83
2022/08/13 06:28:10;;;;;;;13.38;9.57;;;;;;;16.89;75.07;101630.53;6242949;22;20007;-83
2022/08/13 06:30:38;;;;;;;13.57;9.82;;;;;;;16.95;75.91;101630.28;6242526;22;19999;-82
2022/08/13 06:33:03;;;;;;;14.60;9.77;;;;;;;17.02;76.10;101638.78;6240978;23;20442;-83
2022/08/13 06:35:31;;;;;;;12.63;10.68;;;;;;;17.08;74.77;101631.53;6241874;22;20019;-83
2022/08/13 06:37:57;;;;;;;14.10;10.40;;;;;;;17.15;76.46;101637.38;6240693;22;20030;-83
2022/08/13 06:40:24;;;;;;;13.63;10.40;;;;;;;17.17;73.09;101636.44;6241088;22;20008;-83
2022/08/13 06:42:50;;;;;;;17.60;11.35;;;;;;;17.28;70.63;101638.63;6240445;22;20000;-83
2022/08/13 06:45:19;;;;;;;13.98;10.50;;;;;;;17.36;73.75;101636.56;6240487;22;20753;-83
2022/08/13 06:47:45;;;;;;;18.23;10.77;;;;;;;17.45;71.96;101640.59;6240598;22;20008;-83
2022/08/13 06:50:11;;;;;;;16.35;10.88;;;;;;;17.52;75.25;101642.06;6240544;22;20039;-82
2022/08/13 06:52:38;;;;;;;19.13;11.60;;;;;;;17.57;74.78;101643.59;6238422;23;20470;-83
2022/08/13 06:55:07;;;;;;;15.27;10.13;;;;;;;17.65;73.08;101640.69;6240944;22;20063;-83
2022/08/13 06:57:33;;;;;;;13.18;10.07;;;;;;;17.75;74.17;101642.00;6239313;23;20442;-83
2022/08/13 06:59:59;;;;;;;12.40;9.98;;;;;;;17.85;76.30;101647.75;6240977;22;20011;-83
2022/08/13 07:02:25;;;;;;;13.88;10.15;;;;;;;17.94;73.32;101642.13;6240870;22;20000;-83
2022/08/13 07:04:51;;;;;;;17.30;10.38;;;;;;;18.03;73.04;101647.84;6240036;22;20346;-82
2022/08/13 07:07:18;;;;;;;12.48;10.38;;;;;;;18.13;75.93;101648.31;6238913;22;20031;-83
2022/08/13 07:09:47;;;;;;;15.77;10.05;;;;;;;18.21;71.39;101648.00;6240358;22;20000;-83
2022/08/13 07:12:13;;;;;;;14.68;8.93;;;;;;;18.30;73.29;101634.47;6240610;22;20030;-82
2022/08/13 07:14:45;;;;;;;14.00;9.30;;;;;;;18.41;71.71;101640.97;6240993;23;20004;-83
2022/08/13 07:17:11;;;;;;;12.70;9.32;;;;;;;18.55;69.27;101645.63;6240547;22;20235;-84
2022/08/13 07:19:37;;;;;;;12.15;8.55;;;;;;;18.77;71.21;101648.16;6240665;22;20000;-82
2022/08/13 07:22:05;;;;;;;12.88;9.00;;;;;;;19.00;65.88;101647.13;6240016;22;20075;-82
2022/08/13 07:24:32;;;;;;;10.75;8.40;;;;;;;19.19;67.92;101650.59;6239787;23;20004;-82
2022/08/13 07:27:07;;;;;;;11.82;8.95;;;;;;;19.32;68.46;101654.34;6240305;22;20004;-82
2022/08/13 07:29:35;;;;;;;14.15;9.23;;;;;;;19.55;64.38;101659.44;6240384;22;20011;-82
2022/08/13 07:32:02;;;;;;;11.75;8.40;;;;;;;19.77;63.67;101645.22;6240411;22;20004;-82
2022/08/13 07:34:31;;;;;;;15.43;8.88;;;;;;;19.92;63.12;101644.47;6239351;22;20023;-82
2022/08/13 07:36:56;;;;;;;10.93;8.70;;;;;;;20.01;66.60;101658.00;6240050;22;20433;-82
2022/08/13 07:39:22;;;;;;;12.93;8.60;;;;;;;20.20;61.84;101643.94;6240449;22;20031;-82
2022/08/13 07:41:48;;;;;;;11.07;8.38;;;;;;;20.25;63.96;101647.19;6240466;22;20007;-82
2022/08/13 07:44:22;;;;;;;17.63;8.43;;;;;;;20.37;64.85;101650.06;6263188;22;20000;-82
2022/08/13 07:46:49;;;;;;;11.02;7.80;;;;;;;20.51;63.37;101652.00;6238524;23;20012;-82
2022/08/13 07:49:16;;;;;;;10.10;7.63;;;;;;;20.54;64.43;101643.91;6239873;22;20000;-83
2022/08/13 07:51:42;;;;;;;11.25;6.72;;;;;;;20.73;61.94;101662.25;6240062;22;20008;-83
2022/08/13 07:54:09;;;;;;;12.40;7.40;;;;;;;20.86;61.26;101652.78;6263713;22;20011;-82
2022/08/13 07:56:36;;;;;;;13.68;7.28;;;;;;;21.00;63.68;101654.66;6240099;22;20082;-82
2022/08/13 07:59:09;;;;;;;12.32;7.05;;;;;;;21.37;59.57;101649.09;6241480;22;20093;-83
2022/08/13 08:01:49;;;;;;;11.93;6.63;;;;;;;21.90;61.50;101645.19;6241364;22;20059;-84
2022/08/13 08:04:17;;;;;;;8.23;6.20;;;;;;;22.36;60.70;101641.56;6239885;22;20008;-84
2022/08/13 08:06:45;;;;;;;9.60;6.28;;;;;;;22.87;57.30;101644.63;6241835;22;20004;-84
2022/08/13 08:09:19;;;;;;;12.52;6.20;;;;;;;23.52;57.81;101652.84;6241582;22;20091;-84
2022/08/13 08:14:29;;;;;;;7.93;6.25;;;;;;;24.94;51.57;101646.72;6241587;23;20547;-84
2022/08/13 08:16:54;;;;;;;10.50;7.00;;;;;;;25.55;48.76;101643.13;6241549;22;20079;-84
2022/08/13 08:19:20;;;;;;;9.38;6.30;;;;;;;26.00;48.33;101654.81;6240233;23;20028;-84
2022/08/13 08:21:47;;;;;;;8.57;6.00;;;;;;;26.31;49.55;101640.06;6241964;22;20020;-84
2022/08/13 08:24:14;;;;;;;8.93;5.68;;;;;;;26.75;44.98;101650.72;6241729;22;20004;-84
2022/08/13 08:26:40;;;;;;;10.55;6.20;;;;;;;27.06;44.50;101653.66;6241907;22;20000;-84
2022/08/13 08:29:09;;;;;;;10.10;5.50;;;;;;;27.25;46.88;101658.34;6240629;23;20071;-84
2022/08/13 08:31:39;;;;;;;6.82;5.82;;;;;;;27.46;45.29;101653.94;6241224;22;20035;-84
2022/08/13 08:34:07;;;;;;;8.93;5.68;;;;;;;27.63;46.59;101657.94;6242272;22;20019;-84
2022/08/13 08:36:37;;;;;;;9.15;5.53;;;;;;;27.73;46.12;101653.53;6241484;22;20008;-84
2022/08/13 08:44:38;;;;;;;6.65;5.45;;;;;;;28.11;46.37;101648.50;6241458;23;20512;-84
2022/08/13 08:47:04;;;;;;;8.88;5.70;;;;;;;28.24;44.73;101651.00;6240499;22;20000;-84
2022/08/13 08:49:30;;;;;;;9.88;5.22;;;;;;;28.30;46.56;101650.47;6241875;22;20027;-84
2022/08/13 08:51:57;;;;;;;9.18;5.50;;;;;;;28.36;43.25;101651.75;6240522;23;20012;-84
2022/08/13 08:54:23;;;;;;;9.93;5.10;;;;;;;28.48;44.12;101643.53;6242053;22;20448;-84
2022/08/13 08:56:57;;;;;;;11.02;5.00;;;;;;;28.54;44.05;101647.50;6241496;22;20079;-84
2022/08/13 08:59:26;;;;;;;9.48;4.85;;;;;;;28.62;44.47;101645.00;6240746;22;20000;-84
2022/08/13 09:01:55;;;;;;;8.40;4.55;;;;;;;28.72;41.04;101648.59;6241933;22;20000;-84
2022/08/13 09:04:25;;;;;;;6.72;4.75;;;;;;;28.89;40.77;101642.63;6242193;22;20126;-84
2022/08/13 09:06:52;;;;;;;8.82;4.93;;;;;;;28.98;39.02;101639.16;6265955;22;20004;-84
2022/08/13 09:09:19;;;;;;;7.38;4.78;;;;;;;29.20;37.75;101643.44;6241871;22;20004;-82
2022/08/13 09:11:47;;;;;;;5.85;4.40;;;;;;;29.29;41.22;101641.75;6241888;22;20074;-82
2022/08/13 09:14:13;;;;;;;6.55;4.50;;;;;;;29.26;39.76;101639.38;6242218;22;20026;-83
2022/08/13 09:16:39;;;;;;;8.00;4.32;;;;;;;29.37;38.51;101634.78;6241746;22;20512;-82
2022/08/13 09:19:06;;;;;;;7.32;4.20;;;;;;;29.47;39.57;101626.78;6241829;22;20004;-82
2022/08/13 09:21:36;;;;;;;11.43;4.10;;;;;;;29.47;38.13;101629.44;6241261;22;20016;-82
2022/08/13 09:24:02;;;;;;;4.50;3.40;;;;;;;29.54;35.73;101630.56;6241765;22;20011;-82
2022/08/13 09:26:27;;;;;;;7.82;4.35;;;;;;;29.78;36.85;101630.16;6241993;22;20001;-83
2022/08/13 09:28:56;;;;;;;6.10;3.67;;;;;;;29.76;37.87;101637.44;6241945;22;20004;-82
2022/08/13 09:31:23;;;;;;;6.45;4.18;;;;;;;29.83;35.65;101631.41;6266171;22;20459;-82
2022/08/13 09:33:49;;;;;;;5.68;3.78;;;;;;;29.98;35.02;101637.19;6240468;23;20079;-82
2022/08/13 09:36:15;;;;;;;4.97;3.70;;;;;;;29.97;34.68;101638.19;6241970;22;20035;-82
2022/08/13 09:38:41;;;;;;;6.22;3.55;;;;;;;30.08;35.23;101634.50;6240237;22;20488;-85
2022/08/13 09:41:17;;;;;;;5.22;3.83;;;;;;;30.21;35.03;101630.53;6238666;22;20008;-84
2022/08/13 09:43:44;;;;;;;4.80;4.00;;;;;;;30.17;33.85;101628.28;6241522;22;20003;-84
2022/08/13 09:46:11;;;;;;;4.75;3.75;;;;;;;30.14;35.46;101626.75;6241818;22;20051;-84
2022/08/13 09:48:37;;;;;;;8.65;3.80;;;;;;;30.18;35.13;101621.94;6241655;22;20057;-84
2022/08/13 09:51:03;;;;;;;5.78;3.70;;;;;;;30.12;34.27;101617.19;6242181;22;20558;-85
2022/08/13 09:53:29;;;;;;;5.13;3.67;;;;;;;30.09;33.42;101625.50;6242048;22;20000;-85
2022/08/13 09:55:55;;;;;;;4.88;3.70;;;;;;;30.19;35.69;101615.63;6241584;22;20006;-85
2022/08/13 09:58:22;;;;;;;5.78;3.70;;;;;;;30.16;34.72;101621.28;6240735;22;20008;-84
2022/08/13 10:00:48;;;;;;;6.25;3.53;;;;;;;30.11;33.20;101613.66;6240338;22;20451;-86
2022/08/13 10:03:17;;;;;;;7.25;3.70;;;;;;;30.13;33.42;101614.38;6240798;22;20499;-85
2022/08/13 10:05:46;;;;;;;6.80;3.70;;;;;;;30.04;32.32;101617.06;6241138;22;20034;-85
2022/08/13 10:08:16;;;;;;;5.63;3.40;;;;;;;30.11;32.88;101602.97;6240975;22;20003;-85
2022/08/13 10:10:44;;;;;;;5.07;3.53;;;;;;;30.26;31.06;101603.34;6240846;22;20030;-85
2022/08/13 10:13:10;;;;;;;4.90;3.50;;;;;;;30.45;30.20;101602.44;6242279;22;20005;-84
2022/08/13 10:15:35;;;;;;;4.80;3.63;;;;;;;30.40;32.98;101605.56;6243027;22;19999;-85
2022/08/13 10:18:02;;;;;;;5.50;3.70;;;;;;;30.42;34.15;101606.25;6242672;23;20004;-85
2022/08/13 10:20:32;;;;;;;3.90;3.50;;;;;;;30.52;33.62;101595.53;6242147;22;20373;-85
2022/08/13 10:22:58;;;;;;;6.57;3.50;;;;;;;30.59;32.19;101596.63;6244033;22;20425;-85
2022/08/13 10:25:25;;;;;;;4.15;3.60;;;;;;;30.58;30.50;101592.25;6242898;22;20000;-85
2022/08/13 10:27:51;;;;;;;4.80;3.40;;;;;;;30.52;32.59;101596.38;6243850;22;20004;-85
2022/08/13 10:30:24;;;;;;;6.65;3.60;;;;;;;30.53;32.92;101594.56;6242436;22;20004;-84
2022/08/13 10:32:49;;;;;;;4.57;3.20;;;;;;;30.56;31.30;101596.94;6243232;22;20053;-84
2022/08/13 10:35:17;;;;;;;4.55;3.60;;;;;;;30.57;32.00;101591.41;6241435;23;20003;-85
2022/08/13 10:37:49;;;;;;;6.15;3.28;;;;;;;30.55;32.57;101592.59;6243253;22;20004;-85
2022/08/13 10:40:14;;;;;;;4.35;3.03;;;;;;;30.63;30.40;101591.84;6237890;23;20020;-85
2022/08/13 10:42:44;;;;;;;7.05;3.20;;;;;;;30.68;30.31;101584.19;6240855;22;20410;-85
2022/08/13 10:45:12;;;;;;;4.53;3.33;;;;;;;30.58;29.91;101585.09;6241031;22;20011;-85
2022/08/13 10:47:47;;;;;;;7.20;3.00;;;;;;;30.46;29.70;101590.75;6238714;22;20042;-85
2022/08/13 10:50:18;;;;;;;4.80;2.75;;;;;;;30.40;30.62;101585.97;6239945;22;20004;-85
2022/08/13 10:52:44;;;;;;;4.93;2.70;;;;;;;30.35;29.48;101582.91;6240379;22;20139;-85
2022/08/13 10:55:12;;;;;;;5.55;3.15;;;;;;;30.30;29.08;101585.19;6240123;22;20008;-85
2022/08/13 10:57:41;;;;;;;3.75;3.30;;;;;;;30.31;29.72;101581.50;6241148;22;20058;-85
2022/08/13 11:00:10;;;;;;;3.65;3.30;;;;;;;30.31;29.85;101585.03;6265618;22;20097;-85
2022/08/13 11:02:37;;;;;;;4.00;3.33;;;;;;;30.16;30.96;101573.13;6241520;22;20000;-85
2022/08/13 11:05:05;;;;;;;4.68;2.90;;;;;;;30.20;29.02;101579.84;6239300;22;20323;-86
2022/08/13 11:07:31;;;;;;;4.35;3.03;;;;;;;30.26;27.94;101570.41;6239501;22;20019;-85
2022/08/13 11:09:56;;;;;;;3.35;2.80;;;;;;;30.23;30.80;101579.53;6240600;22;20008;-85
2022/08/13 11:12:22;;;;;;;3.05;2.85;;;;;;;30.12;29.22;101575.22;6240775;22;20007;-85
2022/08/13 11:14:48;;;;;;;4.22;2.90;;;;;;;30.24;29.76;101587.44;6240683;22;20000;-85
2022/08/13 11:17:17;;;;;;;3.20;3.00;;;;;;;30.28;30.16;101579.13;6240586;23;20007;-86
2022/08/13 11:19:45;;;;;;;3.60;2.90;;;;;;;30.23;30.27;101574.19;6240112;22;20096;-86
2022/08/13 11:22:11;;;;;;;3.17;2.88;;;;;;;30.17;30.16;101572.09;6237721;22;20323;-86
2022/08/13 11:24:36;;;;;;;3.78;3.08;;;;;;;30.07;29.53;101565.97;6239263;23;20007;-85
2022/08/13 11:27:01;;;;;;;5.87;3.20;;;;;;;30.06;29.18;101562.44;6239832;22;20044;-86
2022/08/13 11:29:26;;;;;;;5.73;3.40;;;;;;;29.98;30.93;101566.81;6239920;22;20293;-86
2022/08/13 11:31:52;;;;;;;3.87;3.40;;;;;;;30.05;29.37;101560.75;6240036;23;20239;-85
2022/08/13 11:34:17;;;;;;;5.20;3.30;;;;;;;29.77;29.78;101553.59;6240754;23;20293;-86
2022/08/13 11:36:42;;;;;;;6.77;3.50;;;;;;;29.82;29.33;101560.19;6240182;23;20687;-86
2022/08/13 11:39:08;;;;;;;4.37;3.37;;;;;;;29.90;29.17;101547.94;6239949;23;20230;-86